createdAt,value
2023-04-02T00:02:33.955Z,85.33
2023-04-02T00:06:01.797Z,85.79
2023-04-02T00:09:39.116Z,85.72
2023-04-02T00:13:25.796Z,86.19
2023-04-02T00:16:52.847Z,85.67
2023-04-02T00:20:32.681Z,86.51
2023-04-02T00:24:17.155Z,86.45
2023-04-02T00:27:52.271Z,86.45
2023-04-02T00:31:19.256Z,86.86
2023-04-02T00:34:53.609Z,86.63
2023-04-02T00:38:26.894Z,86.50
2023-04-02T00:42:08.905Z,86.33
2023-04-02T00:45:37.212Z,86.62
2023-04-02T00:49:21.516Z,86.65
2023-04-02T00:52:58.435Z,85.73
2023-04-02T00:56:34.575Z,85.48
2023-04-02T01:00:23.995Z,85.65
2023-04-02T01:04:01.548Z,85.57
2023-04-02T01:07:53.593Z,84.88
2023-04-02T01:11:32.017Z,84.68
2023-04-02T01:15:14.641Z,85.23
2023-04-02T01:18:53.375Z,84.82
2023-04-02T01:22:48.277Z,85.74
2023-04-02T01:26:27.763Z,85.62
2023-04-02T01:29:56.867Z,85.45
2023-04-02T01:33:30.258Z,85.62
2023-04-02T01:37:25.118Z,85.17
2023-04-02T01:41:09.588Z,85.40
2023-04-02T01:44:39.926Z,85.09
2023-04-02T01:48:24.846Z,85.22
2023-04-02T01:51:56.865Z,84.91
2023-04-02T01:55:30.294Z,84.48
2023-04-02T01:59:02.922Z,84.99
2023-04-02T02:02:30.886Z,84.72
2023-04-02T02:05:46.974Z,84.83
2023-04-02T02:09:26.088Z,84.66
2023-04-02T02:13:01.910Z,84.33
2023-04-02T02:16:34.644Z,84.61
2023-04-02T02:20:17.916Z,84.79
2023-04-02T02:23:34.569Z,85.59
2023-04-02T02:27:22.925Z,84.76
2023-04-02T02:30:59.567Z,85.55
2023-04-02T02:34:34.372Z,84.88
2023-04-02T02:39:03.920Z,85.42
2023-04-02T02:42:51.384Z,84.79
2023-04-02T02:46:22.356Z,84.87
2023-04-02T02:49:50.938Z,85.06
2023-04-02T02:53:30.832Z,85.12
2023-04-02T02:57:02.578Z,85.10
2023-04-02T03:00:43.748Z,85.43
2023-04-02T03:04:23.892Z,86.05
2023-04-02T03:07:52.588Z,86.31
2023-04-02T03:11:38.210Z,86.38
2023-04-02T03:15:27.666Z,86.03
2023-04-02T03:19:01.297Z,86.16
2023-04-02T03:22:41.644Z,86.41
2023-04-02T03:26:15.948Z,86.63
2023-04-02T03:30:11.036Z,86.99
2023-04-02T03:33:48.129Z,86.73
2023-04-02T03:37:14.400Z,86.94
2023-04-02T03:41:17.673Z,87.18
2023-04-02T03:44:59.755Z,87.03
2023-04-02T03:48:46.377Z,87.55
2023-04-02T03:52:30.579Z,88.12
2023-04-02T03:55:57.686Z,88.69
2023-04-02T03:59:35.960Z,89.41
2023-04-02T04:03:16.725Z,89.42
2023-04-02T04:06:34.333Z,90.02
2023-04-02T04:09:52.744Z,90.38
2023-04-02T04:13:26.029Z,90.32
2023-04-02T04:17:09.550Z,90.30
2023-04-02T04:20:50.358Z,90.79
2023-04-02T04:24:28.320Z,91.01
2023-04-02T04:28:27.013Z,91.13
2023-04-02T04:31:55.856Z,90.21
2023-04-02T04:35:33.512Z,90.74
2023-04-02T04:39:05.890Z,90.62
2023-04-02T04:42:40.334Z,90.77
2023-04-02T04:46:16.620Z,90.40
2023-04-02T04:50:06.343Z,90.46
2023-04-02T04:53:51.610Z,90.07
2023-04-02T04:57:35.188Z,90.45
2023-04-02T05:01:38.912Z,90.43
2023-04-02T05:05:03.604Z,90.42
2023-04-02T05:08:27.359Z,90.16
2023-04-02T05:12:27.387Z,90.18
2023-04-02T05:16:21.395Z,89.60
2023-04-02T05:20:22.680Z,89.86
2023-04-02T05:24:40.183Z,88.37
2023-04-02T05:28:10.346Z,88.05
2023-04-02T05:31:49.287Z,87.31
2023-04-02T05:35:07.792Z,86.44
2023-04-02T05:38:37.939Z,85.70
2023-04-02T05:42:22.722Z,85.23
2023-04-02T05:45:54.653Z,84.84
2023-04-02T05:49:48.164Z,84.06
2023-04-02T05:53:41.612Z,83.04
2023-04-02T05:57:46.794Z,82.15
2023-04-02T06:01:18.731Z,80.60
2023-04-02T06:04:59.987Z,79.20
2023-04-02T06:08:52.154Z,78.68
2023-04-02T06:12:49.287Z,78.09
2023-04-02T06:15:58.721Z,77.71
2023-04-02T06:19:31.828Z,76.99
2023-04-02T06:23:41.239Z,75.92
2023-04-02T06:27:10.505Z,74.48
2023-04-02T06:31:07.736Z,74.51
2023-04-02T06:34:32.609Z,73.43
2023-04-02T06:38:06.527Z,74.65
2023-04-02T06:42:13.768Z,74.57
2023-04-02T06:45:45.323Z,74.04
2023-04-02T06:49:11.001Z,73.50
2023-04-02T06:53:06.403Z,73.26
2023-04-02T06:56:58.705Z,72.25
2023-04-02T07:00:43.290Z,70.55
2023-04-02T07:03:48.230Z,71.67
2023-04-02T07:07:00.574Z,70.80
2023-04-02T07:10:32.328Z,69.26
2023-04-02T07:13:45.102Z,69.62
2023-04-02T07:17:22.027Z,68.32
2023-04-02T07:20:45.055Z,69.45
2023-04-02T07:24:29.005Z,69.80
2023-04-02T07:27:48.374Z,68.05
2023-04-02T07:31:29.064Z,68.25
2023-04-02T07:35:07.941Z,66.69
2023-04-02T07:38:39.401Z,68.04
2023-04-02T07:42:18.748Z,66.74
2023-04-02T07:45:46.431Z,66.37
2023-04-02T07:49:15.286Z,64.60
2023-04-02T07:53:17.143Z,63.94
2023-04-02T07:57:03.110Z,62.69
2023-04-02T08:00:40.369Z,62.89
2023-04-02T08:04:19.456Z,62.00
2023-04-02T08:07:34.224Z,62.05
2023-04-02T08:10:58.590Z,62.11
2023-04-02T08:14:26.626Z,60.52
2023-04-02T08:18:15.861Z,60.06
2023-04-02T08:21:19.476Z,60.31
2023-04-02T08:24:37.841Z,59.29
2023-04-02T08:27:48.274Z,60.32
2023-04-02T08:31:13.712Z,61.13
2023-04-02T08:34:51.965Z,60.86
2023-04-02T08:38:16.794Z,61.46
2023-04-02T08:41:53.316Z,61.97
2023-04-02T08:45:41.945Z,61.59
2023-04-02T08:49:39.499Z,59.78
2023-04-02T08:52:48.384Z,58.00
2023-04-02T08:56:10.017Z,57.24
2023-04-02T08:59:42.028Z,53.88
2023-04-02T09:03:19.830Z,53.19
2023-04-02T09:06:25.324Z,53.20
2023-04-02T09:09:52.979Z,53.81
2023-04-02T09:13:41.756Z,54.87
2023-04-02T09:16:55.574Z,53.68
2023-04-02T09:20:18.272Z,54.21
2023-04-02T09:23:26.301Z,53.47
2023-04-02T09:26:32.197Z,52.53
2023-04-02T09:29:46.639Z,53.19
2023-04-02T09:33:18.446Z,55.16
2023-04-02T09:36:48.939Z,55.55
2023-04-02T09:39:52.053Z,54.65
2023-04-02T09:43:31.655Z,53.91
2023-04-02T09:47:00.397Z,53.49
2023-04-02T09:50:35.063Z,57.03
2023-04-02T09:53:41.857Z,59.22
2023-04-02T09:57:25.457Z,63.38
2023-04-02T10:00:32.175Z,62.28
2023-04-02T10:03:37.453Z,62.72
2023-04-02T10:06:50.419Z,64.66
2023-04-02T10:10:26.373Z,64.16
2023-04-02T10:13:35.912Z,65.70
2023-04-02T10:17:33.005Z,67.56
2023-04-02T10:20:50.472Z,65.66
2023-04-02T10:24:19.031Z,65.68
2023-04-02T10:27:42.516Z,66.85
2023-04-02T10:31:11.442Z,67.37
2023-04-02T10:34:23.443Z,68.84
2023-04-02T10:37:52.992Z,68.30
2023-04-02T10:41:33.489Z,66.47
2023-04-02T10:44:54.396Z,65.42
2023-04-02T10:48:20.920Z,63.65
2023-04-02T10:51:32.353Z,63.02
2023-04-02T10:55:14.771Z,64.78
2023-04-02T10:59:04.769Z,66.66
2023-04-02T11:02:28.345Z,64.67
2023-04-02T11:05:44.128Z,66.83
2023-04-02T11:08:52.146Z,65.85
2023-04-02T11:11:58.979Z,64.15
2023-04-02T11:15:02.931Z,61.33
2023-04-02T11:18:36.186Z,59.03
2023-04-02T11:21:55.009Z,59.31
2023-04-02T11:25:20.680Z,60.42
2023-04-02T11:28:35.662Z,57.29
2023-04-02T11:32:20.782Z,54.48
2023-04-02T11:35:43.562Z,53.71
2023-04-02T11:39:01.875Z,50.55
2023-04-02T11:42:19.046Z,49.35
2023-04-02T11:45:52.748Z,53.15
2023-04-02T11:49:37.337Z,54.85
2023-04-02T11:52:48.945Z,55.69
2023-04-02T11:56:21.550Z,57.27
2023-04-02T12:00:16.217Z,58.21
2023-04-02T12:03:50.486Z,61.04
2023-04-02T12:07:27.377Z,60.56
2023-04-02T12:11:01.066Z,62.31
2023-04-02T12:14:46.430Z,61.44
2023-04-02T12:18:32.970Z,59.08
2023-04-02T12:21:38.950Z,53.76
2023-04-02T12:24:47.313Z,51.63
2023-04-02T12:28:09.486Z,49.98
2023-04-02T12:31:35.952Z,49.12
2023-04-02T12:34:46.220Z,49.65
2023-04-02T12:37:53.888Z,47.23
2023-04-02T12:41:33.665Z,49.04
2023-04-02T12:44:49.342Z,49.26
2023-04-02T12:47:53.995Z,50.46
2023-04-02T12:51:18.555Z,49.26
2023-04-02T12:54:22.256Z,49.75
2023-04-02T12:57:32.000Z,51.42
2023-04-02T13:00:37.475Z,50.41
2023-04-02T13:04:12.748Z,50.83
2023-04-02T13:07:19.981Z,51.62
2023-04-02T13:10:54.628Z,51.20
2023-04-02T13:14:22.307Z,51.90
2023-04-02T13:17:47.417Z,51.47
2023-04-02T13:24:45.868Z,51.14
2023-04-02T13:28:10.111Z,50.72
2023-04-02T13:31:17.382Z,50.78
2023-04-02T13:34:44.877Z,51.57
2023-04-02T13:37:50.155Z,52.24
2023-04-02T13:41:21.634Z,51.52
2023-04-02T13:44:56.074Z,51.23
2023-04-02T13:48:18.264Z,50.95
2023-04-02T13:51:46.612Z,51.83
2023-04-02T14:13:26.078Z,56.47
2023-04-02T14:17:13.560Z,59.32
2023-04-02T14:21:01.154Z,59.28
2023-04-02T14:24:40.797Z,60.42
2023-04-02T14:28:06.664Z,62.25
2023-04-02T14:31:21.786Z,56.46
2023-04-02T14:34:52.489Z,55.18
2023-04-02T14:38:33.817Z,56.37
2023-04-02T14:42:22.210Z,56.60
2023-04-02T14:45:28.307Z,55.59
2023-04-02T14:48:33.277Z,56.56
2023-04-02T14:51:56.720Z,57.16
2023-04-02T14:55:04.344Z,59.20
2023-04-02T14:58:31.302Z,57.95
2023-04-02T15:01:44.401Z,58.92
2023-04-02T15:04:59.521Z,61.01
2023-04-02T15:08:22.681Z,62.98
2023-04-02T15:11:37.426Z,62.65
2023-04-02T15:14:49.107Z,62.20
2023-04-02T15:17:51.771Z,63.28
2023-04-02T15:21:02.398Z,63.29
2023-04-02T15:24:42.831Z,64.69
2023-04-02T15:28:11.911Z,65.31
2023-04-02T15:31:15.272Z,64.36
2023-04-02T15:34:32.399Z,65.93
2023-04-02T15:37:55.404Z,72.09
2023-04-02T15:41:07.890Z,83.87
2023-04-02T15:44:16.112Z,90.17
2023-04-02T15:47:37.122Z,99.25
2023-04-02T15:50:52.630Z,100.00
2023-04-02T15:54:43.997Z,100.00
2023-04-02T15:57:53.363Z,100.00
2023-04-02T16:01:08.767Z,100.00
2023-04-02T16:05:11.378Z,100.00
2023-04-02T16:08:53.107Z,100.00
2023-04-02T16:12:19.267Z,100.00
2023-04-02T16:16:13.638Z,100.00
2023-04-02T16:20:17.889Z,100.00
2023-04-02T16:23:58.379Z,100.00
2023-04-02T16:27:25.392Z,100.00
2023-04-02T16:31:07.129Z,100.00
2023-04-02T16:34:30.826Z,100.00
2023-04-02T16:38:09.472Z,100.00
2023-04-02T16:41:16.304Z,100.00
2023-04-02T16:44:29.192Z,100.00
2023-04-02T16:47:45.044Z,100.00
2023-04-02T16:50:59.879Z,100.00
2023-04-02T16:54:52.208Z,100.00
2023-04-02T16:58:02.593Z,100.00
2023-04-02T17:01:27.820Z,100.00
2023-04-02T17:04:58.370Z,100.00
2023-04-02T17:08:30.209Z,100.00
2023-04-02T17:11:36.765Z,100.00
2023-04-02T17:14:47.840Z,100.00
2023-04-02T17:17:54.746Z,100.00
2023-04-02T17:21:01.929Z,100.00
2023-04-02T17:24:17.540Z,100.00
2023-04-02T17:27:53.130Z,100.00
2023-04-02T17:31:00.564Z,100.00
2023-04-02T17:34:27.843Z,100.00
2023-04-02T17:37:54.914Z,100.00
2023-04-02T17:41:41.677Z,100.00
2023-04-02T17:45:14.255Z,100.00
2023-04-02T17:48:37.983Z,99.59
2023-04-02T17:52:13.221Z,95.34
2023-04-02T17:55:24.129Z,91.38
2023-04-02T17:59:08.935Z,91.84
2023-04-02T18:02:18.697Z,94.38
2023-04-02T18:05:27.648Z,92.04
2023-04-02T18:09:05.436Z,89.82
2023-04-02T18:12:49.495Z,87.49
2023-04-02T18:16:58.555Z,90.87
2023-04-02T18:20:40.544Z,90.32
2023-04-02T18:24:54.216Z,91.18
2023-04-02T18:28:39.888Z,92.73
2023-04-02T18:32:26.788Z,92.69
2023-04-02T18:35:45.124Z,89.10
2023-04-02T18:39:24.486Z,86.92
2023-04-02T18:43:39.359Z,86.15
2023-04-02T18:46:59.007Z,86.86
2023-04-02T18:50:29.795Z,83.82
2023-04-02T18:53:42.753Z,85.44
2023-04-02T18:56:53.476Z,83.73
2023-04-02T19:00:30.986Z,83.92
2023-04-02T19:03:44.113Z,84.10
2023-04-02T19:07:03.194Z,83.47
2023-04-02T19:10:31.371Z,82.04
2023-04-02T19:13:37.451Z,80.44
2023-04-02T19:16:44.794Z,80.94
2023-04-02T19:20:16.434Z,81.90
2023-04-02T19:23:39.753Z,82.49
2023-04-02T19:26:51.853Z,81.31
2023-04-02T19:30:41.016Z,80.62
2023-04-02T19:33:48.780Z,82.10
2023-04-02T19:37:11.456Z,82.46
2023-04-02T19:40:37.741Z,79.40
2023-04-02T19:43:46.099Z,80.96
2023-04-02T19:47:11.287Z,80.16
2023-04-02T19:50:19.246Z,80.36
2023-04-02T19:53:22.620Z,80.02
2023-04-02T19:56:28.776Z,80.64
2023-04-02T19:59:32.716Z,78.70
2023-04-02T20:03:20.460Z,79.30
2023-04-02T20:07:00.104Z,78.62
2023-04-02T20:10:05.839Z,78.68
2023-04-02T20:13:11.915Z,80.18
2023-04-02T20:16:18.490Z,79.39
2023-04-02T20:19:22.183Z,78.42
2023-04-02T20:22:45.219Z,79.40
2023-04-02T20:26:09.316Z,79.03
2023-04-02T20:29:12.367Z,78.69
2023-04-02T20:32:20.741Z,79.72
2023-04-02T20:35:43.430Z,78.91
2023-04-02T20:38:47.912Z,79.37
2023-04-02T20:41:50.571Z,79.01
2023-04-02T20:45:15.996Z,79.55
2023-04-02T20:48:53.005Z,79.49
2023-04-02T20:52:42.532Z,79.52
2023-04-02T20:56:29.595Z,79.71
2023-04-02T21:00:15.398Z,80.41
2023-04-02T21:04:03.046Z,79.65
2023-04-02T21:07:55.561Z,79.59
2023-04-02T21:11:25.625Z,82.51
2023-04-02T21:15:04.376Z,83.09
2023-04-02T21:23:01.543Z,83.92
2023-04-02T21:26:38.205Z,82.60
2023-04-02T21:34:34.146Z,81.70
2023-04-02T21:38:09.418Z,82.80
2023-04-02T21:41:51.034Z,81.26
2023-04-02T21:45:16.316Z,81.20
2023-04-02T21:48:45.764Z,80.93
2023-04-02T21:52:17.790Z,81.06
2023-04-02T21:56:05.029Z,81.56
2023-04-02T21:59:27.792Z,82.84
2023-04-02T22:03:18.426Z,82.89
2023-04-02T22:06:46.789Z,86.52
2023-04-02T22:10:27.200Z,87.54
2023-04-02T22:14:19.087Z,87.48
2023-04-02T22:17:27.407Z,84.87
2023-04-02T22:21:07.383Z,85.19
2023-04-02T22:24:43.701Z,84.90
2023-04-02T22:28:21.746Z,84.64
2023-04-02T22:32:16.361Z,84.38
2023-04-02T22:35:36.966Z,85.31
2023-04-02T22:39:29.916Z,87.30
2023-04-02T22:42:45.212Z,89.92
2023-04-02T22:46:30.734Z,90.56
2023-04-02T22:50:27.446Z,89.36
2023-04-02T22:53:56.508Z,91.38
2023-04-02T22:57:36.120Z,89.85
2023-04-02T23:01:38.933Z,87.02
2023-04-02T23:05:11.093Z,86.16
2023-04-02T23:09:23.159Z,83.95
